Terminal Aerodrome Forecast
Issued by NWS

Home | Current Version | Previous Version | Graphics & Text | Print | Product List | Glossary On
Versions: 1 2 3 4 5 6 7 8 9 10 11 12
948
FTUS43 KGRB 190520
TAFCWA
TAF
KCWA 190520Z 1906/2006 18005KT P6SM OVC060 WS019/23035KT
     FM190900 10003KT P6SM OVC040
     FM191300 03007KT 4SM -FZDZ BR OVC021
     FM191600 04011G17KT 3SM -FZRA BR OVC007
     FM200000 05010G16KT 6SM -FZRA OVC008 WS019/11035KT
      AMD LTD TO CLD VIS AND WIND TIL 191200=

USA.gov is the U.S. government's official web portal to all federal, state and local government web resources and services.